sensor_id;sensor_type;location;lat;lon;timestamp;pressure;altitude;pressure_sealevel;temperature;humidity
18500;BME280;9379;52.134;11.576;2022-12-07T00:01:45;100754.41;;;4.64;96.50
18500;BME280;9379;52.134;11.576;2022-12-07T00:04:15;100769.16;;;4.81;96.63
18500;BME280;9379;52.134;11.576;2022-12-07T00:06:44;100760.41;;;4.66;98.05
18500;BME280;9379;52.134;11.576;2022-12-07T00:09:13;100760.13;;;4.43;98.40
18500;BME280;9379;52.134;11.576;2022-12-07T00:11:40;100755.00;;;4.25;99.89
18500;BME280;9379;52.134;11.576;2022-12-07T00:14:11;100754.47;;;4.04;100.00
18500;BME280;9379;52.134;11.576;2022-12-07T00:16:42;100729.63;;;4.10;100.00
18500;BME280;9379;52.134;11.576;2022-12-07T00:19:14;100705.56;;;4.16;99.54
18500;BME280;9379;52.134;11.576;2022-12-07T00:21:41;100739.41;;;4.22;100.00
18500;BME280;9379;52.134;11.576;2022-12-07T00:24:09;100734.72;;;4.27;99.66
18500;BME280;9379;52.134;11.576;2022-12-07T00:26:39;100729.00;;;4.35;99.67
18500;BME280;9379;52.134;11.576;2022-12-07T00:29:09;100725.00;;;4.14;100.00
18500;BME280;9379;52.134;11.576;2022-12-07T00:31:38;100732.13;;;4.42;99.82
18500;BME280;9379;52.134;11.576;2022-12-07T00:34:05;100722.44;;;4.42;99.42
18500;BME280;9379;52.134;11.576;2022-12-07T00:36:33;100722.88;;;4.34;99.62
18500;BME280;9379;52.134;11.576;2022-12-07T00:39:00;100711.72;;;4.45;99.67
18500;BME280;9379;52.134;11.576;2022-12-07T00:41:28;100716.97;;;4.45;99.61
18500;BME280;9379;52.134;11.576;2022-12-07T00:47:17;100711.88;;;4.99;97.02
18500;BME280;9379;52.134;11.576;2022-12-07T00:49:44;100705.13;;;4.81;97.34
18500;BME280;9379;52.134;11.576;2022-12-07T00:52:12;100704.00;;;4.71;98.07
18500;BME280;9379;52.134;11.576;2022-12-07T00:54:39;100703.44;;;4.80;98.37
18500;BME280;9379;52.134;11.576;2022-12-07T00:57:06;100691.50;;;4.46;98.91
18500;BME280;9379;52.134;11.576;2022-12-07T00:59:33;100695.91;;;4.59;99.21
18500;BME280;9379;52.134;11.576;2022-12-07T01:02:00;100678.50;;;4.71;97.67
18500;BME280;9379;52.134;11.576;2022-12-07T01:07:51;100694.59;;;4.66;99.34
18500;BME280;9379;52.134;11.576;2022-12-07T01:10:18;100695.84;;;4.47;100.00
18500;BME280;9379;52.134;11.576;2022-12-07T01:18:08;100696.38;;;4.23;100.00
18500;BME280;9379;52.134;11.576;2022-12-07T01:20:35;100693.59;;;4.55;100.00
18500;BME280;9379;52.134;11.576;2022-12-07T01:23:04;100684.09;;;4.52;99.52
18500;BME280;9379;52.134;11.576;2022-12-07T01:28:53;100686.69;;;4.38;100.00
18500;BME280;9379;52.134;11.576;2022-12-07T01:31:22;100687.56;;;4.67;99.42
18500;BME280;9379;52.134;11.576;2022-12-07T01:33:51;100679.66;;;4.38;100.00
18500;BME280;9379;52.134;11.576;2022-12-07T01:36:20;100681.88;;;4.73;99.22
18500;BME280;9379;52.134;11.576;2022-12-07T01:42:00;100676.16;;;4.81;99.40
18500;BME280;9379;52.134;11.576;2022-12-07T01:44:28;100665.84;;;4.21;100.00
18500;BME280;9379;52.134;11.576;2022-12-07T01:46:56;100667.19;;;4.42;100.00
18500;BME280;9379;52.134;11.576;2022-12-07T01:49:28;100663.78;;;4.54;100.00
18500;BME280;9379;52.134;11.576;2022-12-07T01:52:01;100656.63;;;4.56;100.00
18500;BME280;9379;52.134;11.576;2022-12-07T01:54:47;100641.34;;;4.06;100.00
18500;BME280;9379;52.134;11.576;2022-12-07T01:57:18;100660.66;;;4.62;100.00
18500;BME280;9379;52.134;11.576;2022-12-07T01:59:47;100660.31;;;4.54;100.00
18500;BME280;9379;52.134;11.576;2022-12-07T02:02:19;100648.97;;;4.80;100.00
18500;BME280;9379;52.134;11.576;2022-12-07T02:04:46;100614.06;;;4.91;99.82
18500;BME280;9379;52.134;11.576;2022-12-07T02:07:13;100639.06;;;4.98;99.02
18500;BME280;9379;52.134;11.576;2022-12-07T02:09:40;100631.03;;;4.87;100.00
18500;BME280;9379;52.134;11.576;2022-12-07T02:12:10;100631.09;;;4.85;100.00
18500;BME280;9379;52.134;11.576;2022-12-07T02:14:38;100634.88;;;4.81;100.00
18500;BME280;9379;52.134;11.576;2022-12-07T02:17:12;100601.19;;;4.45;100.00
18500;BME280;9379;52.134;11.576;2022-12-07T02:20:06;100616.13;;;4.86;100.00
18500;BME280;9379;52.134;11.576;2022-12-07T02:29:22;100583.47;;;4.76;100.00
18500;BME280;9379;52.134;11.576;2022-12-07T02:31:58;100581.81;;;5.14;100.00
18500;BME280;9379;52.134;11.576;2022-12-07T02:34:34;100589.16;;;4.82;100.00
18500;BME280;9379;52.134;11.576;2022-12-07T02:37:10;100604.72;;;5.26;100.00
18500;BME280;9379;52.134;11.576;2022-12-07T02:39:44;100596.66;;;5.15;100.00
18500;BME280;9379;52.134;11.576;2022-12-07T02:42:17;100590.44;;;5.16;100.00
18500;BME280;9379;52.134;11.576;2022-12-07T02:44:47;100590.72;;;5.39;100.00
18500;BME280;9379;52.134;11.576;2022-12-07T02:47:16;100589.31;;;5.98;98.19
18500;BME280;9379;52.134;11.576;2022-12-07T02:49:44;100594.66;;;5.46;100.00
18500;BME280;9379;52.134;11.576;2022-12-07T02:52:11;100581.38;;;6.11;96.99
18500;BME280;9379;52.134;11.576;2022-12-07T02:54:38;100567.47;;;5.71;98.17
18500;BME280;9379;52.134;11.576;2022-12-07T02:57:40;100581.59;;;5.82;98.87
18500;BME280;9379;52.134;11.576;2022-12-07T03:00:12;100581.66;;;5.55;99.66
18500;BME280;9379;52.134;11.576;2022-12-07T03:02:48;100569.41;;;5.29;100.00
18500;BME280;9379;52.134;11.576;2022-12-07T03:05:31;100575.66;;;5.53;100.00
18500;BME280;9379;52.134;11.576;2022-12-07T03:08:09;100566.38;;;5.48;100.00
18500;BME280;9379;52.134;11.576;2022-12-07T03:10:43;100567.88;;;5.77;100.00
18500;BME280;9379;52.134;11.576;2022-12-07T03:13:18;100562.41;;;5.68;100.00
18500;BME280;9379;52.134;11.576;2022-12-07T03:15:55;100560.53;;;5.30;100.00
18500;BME280;9379;52.134;11.576;2022-12-07T03:18:28;100558.16;;;5.52;100.00
18500;BME280;9379;52.134;11.576;2022-12-07T03:20:58;100558.59;;;5.72;100.00
18500;BME280;9379;52.134;11.576;2022-12-07T03:23:31;100552.25;;;5.62;100.00
18500;BME280;9379;52.134;11.576;2022-12-07T03:26:00;100554.69;;;5.65;100.00
18500;BME280;9379;52.134;11.576;2022-12-07T03:28:31;100550.56;;;5.73;100.00
18500;BME280;9379;52.134;11.576;2022-12-07T03:31:03;100548.03;;;6.23;98.47
18500;BME280;9379;52.134;11.576;2022-12-07T03:33:38;100553.66;;;5.80;100.00
18500;BME280;9379;52.134;11.576;2022-12-07T03:39:30;100514.72;;;5.96;99.78
18500;BME280;9379;52.134;11.576;2022-12-07T03:42:01;100537.50;;;5.72;100.00
18500;BME280;9379;52.134;11.576;2022-12-07T03:44:30;100534.38;;;5.92;100.00
18500;BME280;9379;52.134;11.576;2022-12-07T03:50:31;100537.00;;;5.92;100.00
18500;BME280;9379;52.134;11.576;2022-12-07T03:53:09;100485.81;;;5.44;100.00
18500;BME280;9379;52.134;11.576;2022-12-07T03:55:42;100491.09;;;5.69;100.00
18500;BME280;9379;52.134;11.576;2022-12-07T03:58:22;100513.72;;;6.23;99.66
18500;BME280;9379;52.134;11.576;2022-12-07T04:00:51;100496.78;;;5.38;100.00
18500;BME280;9379;52.134;11.576;2022-12-07T04:03:19;100507.53;;;5.85;100.00
18500;BME280;9379;52.134;11.576;2022-12-07T04:05:47;100516.78;;;6.29;98.79
18500;BME280;9379;52.134;11.576;2022-12-07T04:08:14;100517.03;;;5.88;99.90
18500;BME280;9379;52.134;11.576;2022-12-07T04:10:42;100510.81;;;6.14;99.90
18500;BME280;9379;52.134;11.576;2022-12-07T04:13:09;100505.00;;;5.97;100.00
18500;BME280;9379;52.134;11.576;2022-12-07T04:15:39;100500.81;;;5.81;100.00
18500;BME280;9379;52.134;11.576;2022-12-07T04:18:06;100511.47;;;5.80;100.00
18500;BME280;9379;52.134;11.576;2022-12-07T04:20:34;100501.41;;;6.10;100.00
18500;BME280;9379;52.134;11.576;2022-12-07T04:23:02;100522.63;;;5.83;100.00
18500;BME280;9379;52.134;11.576;2022-12-07T04:25:29;100523.59;;;5.95;100.00
18500;BME280;9379;52.134;11.576;2022-12-07T04:27:58;100516.28;;;6.11;100.00
18500;BME280;9379;52.134;11.576;2022-12-07T04:30:26;100515.13;;;6.16;100.00
18500;BME280;9379;52.134;11.576;2022-12-07T04:32:53;100470.47;;;6.12;99.72
18500;BME280;9379;52.134;11.576;2022-12-07T04:35:20;100504.47;;;6.41;99.56
18500;BME280;9379;52.134;11.576;2022-12-07T04:37:47;100517.44;;;6.07;100.00
18500;BME280;9379;52.134;11.576;2022-12-07T04:40:16;100482.63;;;5.90;100.00
18500;BME280;9379;52.134;11.576;2022-12-07T04:42:44;100474.41;;;6.07;100.00
18500;BME280;9379;52.134;11.576;2022-12-07T04:45:16;100506.63;;;6.23;99.37
18500;BME280;9379;52.134;11.576;2022-12-07T04:47:43;100486.84;;;6.41;99.53
18500;BME280;9379;52.134;11.576;2022-12-07T04:50:11;100470.59;;;6.35;97.98
18500;BME280;9379;52.134;11.576;2022-12-07T04:52:44;100462.59;;;5.87;100.00
18500;BME280;9379;52.134;11.576;2022-12-07T04:55:17;100502.81;;;6.40;99.55
18500;BME280;9379;52.134;11.576;2022-12-07T04:57:45;100484.31;;;6.40;99.47
18500;BME280;9379;52.134;11.576;2022-12-07T05:00:14;100486.56;;;6.33;99.41
18500;BME280;9379;52.134;11.576;2022-12-07T05:03:06;100453.97;;;6.22;99.20
18500;BME280;9379;52.134;11.576;2022-12-07T05:05:35;100454.56;;;6.14;98.69
18500;BME280;9379;52.134;11.576;2022-12-07T05:08:02;100443.09;;;5.77;100.00
18500;BME280;9379;52.134;11.576;2022-12-07T05:10:32;100464.91;;;6.04;100.00
18500;BME280;9379;52.134;11.576;2022-12-07T05:13:01;100488.34;;;6.33;99.20
18500;BME280;9379;52.134;11.576;2022-12-07T05:15:28;100483.56;;;6.14;100.00
18500;BME280;9379;52.134;11.576;2022-12-07T05:18:01;100460.69;;;6.02;99.70
18500;BME280;9379;52.134;11.576;2022-12-07T05:20:29;100448.44;;;6.01;99.66
18500;BME280;9379;52.134;11.576;2022-12-07T05:23:03;100468.72;;;6.37;98.44
18500;BME280;9379;52.134;11.576;2022-12-07T05:25:54;100451.16;;;6.12;98.88
18500;BME280;9379;52.134;11.576;2022-12-07T05:28:22;100492.13;;;6.41;98.37
18500;BME280;9379;52.134;11.576;2022-12-07T05:30:50;100454.75;;;6.35;97.55
18500;BME280;9379;52.134;11.576;2022-12-07T05:33:19;100483.84;;;6.70;96.73
18500;BME280;9379;52.134;11.576;2022-12-07T05:35:47;100462.59;;;6.60;96.07
18500;BME280;9379;52.134;11.576;2022-12-07T05:38:15;100444.91;;;6.13;98.52
18500;BME280;9379;52.134;11.576;2022-12-07T05:40:43;100492.47;;;6.37;98.58
18500;BME280;9379;52.134;11.576;2022-12-07T05:43:23;100483.13;;;6.20;99.40
18500;BME280;9379;52.134;11.576;2022-12-07T05:45:54;100493.88;;;6.54;97.87
18500;BME280;9379;52.134;11.576;2022-12-07T05:48:26;100509.41;;;6.46;98.92
18500;BME280;9379;52.134;11.576;2022-12-07T05:50:56;100465.50;;;6.21;99.07
18500;BME280;9379;52.134;11.576;2022-12-07T05:53:24;100472.06;;;6.15;100.00
18500;BME280;9379;52.134;11.576;2022-12-07T05:55:52;100445.69;;;6.15;99.58
18500;BME280;9379;52.134;11.576;2022-12-07T05:58:19;100476.19;;;6.43;99.78
18500;BME280;9379;52.134;11.576;2022-12-07T06:01:05;100447.59;;;6.37;99.49
18500;BME280;9379;52.134;11.576;2022-12-07T06:03:33;100458.25;;;6.35;98.65
18500;BME280;9379;52.134;11.576;2022-12-07T06:06:00;100453.19;;;6.32;99.13
18500;BME280;9379;52.134;11.576;2022-12-07T06:08:34;100471.84;;;6.66;98.33
18500;BME280;9379;52.134;11.576;2022-12-07T06:11:03;100456.31;;;6.26;99.72
18500;BME280;9379;52.134;11.576;2022-12-07T06:13:47;100457.91;;;6.64;98.36
18500;BME280;9379;52.134;11.576;2022-12-07T06:16:17;100467.41;;;6.66;98.09
18500;BME280;9379;52.134;11.576;2022-12-07T06:18:44;100489.25;;;6.44;98.68
18500;BME280;9379;52.134;11.576;2022-12-07T06:21:11;100473.09;;;6.49;98.89
18500;BME280;9379;52.134;11.576;2022-12-07T06:23:42;100478.56;;;6.22;99.55
18500;BME280;9379;52.134;11.576;2022-12-07T06:26:19;100463.25;;;6.51;97.86
18500;BME280;9379;52.134;11.576;2022-12-07T06:28:46;100452.41;;;6.43;97.92
18500;BME280;9379;52.134;11.576;2022-12-07T06:31:30;100447.59;;;6.61;96.63
18500;BME280;9379;52.134;11.576;2022-12-07T06:34:00;100446.34;;;6.54;96.50
18500;BME280;9379;52.134;11.576;2022-12-07T06:36:28;100470.94;;;6.54;96.76
18500;BME280;9379;52.134;11.576;2022-12-07T06:38:56;100442.13;;;6.03;97.12
18500;BME280;9379;52.134;11.576;2022-12-07T06:41:24;100442.31;;;6.37;96.79
18500;BME280;9379;52.134;11.576;2022-12-07T06:43:53;100492.31;;;6.51;97.20
18500;BME280;9379;52.134;11.576;2022-12-07T06:46:36;100492.50;;;6.48;95.66
18500;BME280;9379;52.134;11.576;2022-12-07T06:49:04;100500.78;;;6.43;96.66
18500;BME280;9379;52.134;11.576;2022-12-07T06:51:31;100501.13;;;6.63;96.08
18500;BME280;9379;52.134;11.576;2022-12-07T06:53:58;100482.47;;;6.29;96.76
18500;BME280;9379;52.134;11.576;2022-12-07T06:56:25;100470.41;;;6.38;96.49
18500;BME280;9379;52.134;11.576;2022-12-07T06:58:52;100500.59;;;6.82;95.26
18500;BME280;9379;52.134;11.576;2022-12-07T07:01:18;100497.59;;;6.75;94.84
18500;BME280;9379;52.134;11.576;2022-12-07T07:03:47;100496.69;;;6.63;95.10
18500;BME280;9379;52.134;11.576;2022-12-07T07:06:14;100493.09;;;6.64;94.96
18500;BME280;9379;52.134;11.576;2022-12-07T07:08:41;100496.69;;;6.39;95.09
18500;BME280;9379;52.134;11.576;2022-12-07T07:11:08;100506.22;;;6.53;94.92
18500;BME280;9379;52.134;11.576;2022-12-07T07:13:35;100496.34;;;6.44;94.67
18500;BME280;9379;52.134;11.576;2022-12-07T07:16:02;100503.13;;;6.59;94.19
18500;BME280;9379;52.134;11.576;2022-12-07T07:18:29;100511.34;;;6.67;93.90
18500;BME280;9379;52.134;11.576;2022-12-07T07:20:58;100518.06;;;6.48;95.28
18500;BME280;9379;52.134;11.576;2022-12-07T07:23:25;100511.91;;;6.23;95.05
18500;BME280;9379;52.134;11.576;2022-12-07T07:29:08;100496.56;;;6.41;94.15
18500;BME280;9379;52.134;11.576;2022-12-07T07:31:35;100520.88;;;6.33;95.81
18500;BME280;9379;52.134;11.576;2022-12-07T07:34:02;100506.56;;;6.12;95.70
18500;BME280;9379;52.134;11.576;2022-12-07T07:36:30;100517.81;;;6.39;95.03
18500;BME280;9379;52.134;11.576;2022-12-07T07:38:57;100526.63;;;6.51;94.76
18500;BME280;9379;52.134;11.576;2022-12-07T07:41:24;100527.16;;;6.43;94.82
18500;BME280;9379;52.134;11.576;2022-12-07T07:43:51;100529.97;;;6.29;95.48
18500;BME280;9379;52.134;11.576;2022-12-07T07:46:18;100530.16;;;6.39;94.70
18500;BME280;9379;52.134;11.576;2022-12-07T07:48:44;100529.44;;;6.61;94.37
18500;BME280;9379;52.134;11.576;2022-12-07T07:51:11;100526.28;;;6.56;94.37
18500;BME280;9379;52.134;11.576;2022-12-07T07:53:40;100521.72;;;6.58;93.85
18500;BME280;9379;52.134;11.576;2022-12-07T07:56:07;100522.84;;;6.42;94.13
18500;BME280;9379;52.134;11.576;2022-12-07T07:58:33;100528.44;;;6.75;93.56
18500;BME280;9379;52.134;11.576;2022-12-07T08:01:04;100527.78;;;6.71;93.21
18500;BME280;9379;52.134;11.576;2022-12-07T08:03:31;100529.81;;;6.91;92.67
18500;BME280;9379;52.134;11.576;2022-12-07T08:05:58;100527.13;;;6.80;93.77
18500;BME280;9379;52.134;11.576;2022-12-07T08:08:24;100530.72;;;7.03;92.42
18500;BME280;9379;52.134;11.576;2022-12-07T08:10:53;100536.09;;;7.01;92.26
18500;BME280;9379;52.134;11.576;2022-12-07T08:13:19;100530.06;;;6.64;94.08
18500;BME280;9379;52.134;11.576;2022-12-07T08:15:47;100541.22;;;6.44;95.26
18500;BME280;9379;52.134;11.576;2022-12-07T08:18:16;100541.06;;;6.58;95.19
18500;BME280;9379;52.134;11.576;2022-12-07T08:20:43;100533.00;;;6.72;94.34
18500;BME280;9379;52.134;11.576;2022-12-07T08:23:10;100525.56;;;6.78;94.38
18500;BME280;9379;52.134;11.576;2022-12-07T08:25:37;100514.66;;;6.82;93.87
18500;BME280;9379;52.134;11.576;2022-12-07T08:28:06;100534.72;;;6.85;94.48
18500;BME280;9379;52.134;11.576;2022-12-07T08:30:33;100535.00;;;6.69;95.24
18500;BME280;9379;52.134;11.576;2022-12-07T08:33:02;100542.78;;;6.83;95.35
18500;BME280;9379;52.134;11.576;2022-12-07T08:35:29;100546.91;;;6.98;95.09
18500;BME280;9379;52.134;11.576;2022-12-07T08:37:55;100520.44;;;6.87;94.83
18500;BME280;9379;52.134;11.576;2022-12-07T08:40:23;100537.44;;;6.72;95.11
18500;BME280;9379;52.134;11.576;2022-12-07T08:42:50;100538.63;;;7.03;95.34
18500;BME280;9379;52.134;11.576;2022-12-07T08:45:20;100535.34;;;6.64;95.31
18500;BME280;9379;52.134;11.576;2022-12-07T08:47:51;100537.88;;;6.66;95.92
18500;BME280;9379;52.134;11.576;2022-12-07T08:50:22;100512.78;;;6.48;95.82
18500;BME280;9379;52.134;11.576;2022-12-07T08:52:51;100518.16;;;6.22;96.13
18500;BME280;9379;52.134;11.576;2022-12-07T08:55:19;100540.66;;;6.52;96.41
18500;BME280;9379;52.134;11.576;2022-12-07T08:57:46;100550.56;;;6.61;95.73
18500;BME280;9379;52.134;11.576;2022-12-07T09:00:14;100539.44;;;6.68;95.02
18500;BME280;9379;52.134;11.576;2022-12-07T09:02:43;100540.31;;;6.56;95.46
18500;BME280;9379;52.134;11.576;2022-12-07T09:05:10;100527.59;;;6.74;94.60
18500;BME280;9379;52.134;11.576;2022-12-07T09:07:38;100547.16;;;6.71;94.95
18500;BME280;9379;52.134;11.576;2022-12-07T09:10:06;100539.44;;;6.32;96.06
18500;BME280;9379;52.134;11.576;2022-12-07T09:12:33;100555.16;;;6.70;95.48
18500;BME280;9379;52.134;11.576;2022-12-07T09:15:00;100543.03;;;6.67;95.33
18500;BME280;9379;52.134;11.576;2022-12-07T09:17:31;100551.78;;;6.68;95.55
18500;BME280;9379;52.134;11.576;2022-12-07T09:20:00;100562.59;;;6.89;94.80
18500;BME280;9379;52.134;11.576;2022-12-07T09:22:28;100570.22;;;6.57;95.72
18500;BME280;9379;52.134;11.576;2022-12-07T09:24:55;100547.94;;;6.61;95.07
18500;BME280;9379;52.134;11.576;2022-12-07T09:27:22;100564.56;;;6.74;95.11
18500;BME280;9379;52.134;11.576;2022-12-07T09:29:49;100562.47;;;6.66;94.96
18500;BME280;9379;52.134;11.576;2022-12-07T09:32:16;100554.56;;;6.66;95.57
18500;BME280;9379;52.134;11.576;2022-12-07T09:34:42;100553.34;;;6.83;94.51
18500;BME280;9379;52.134;11.576;2022-12-07T09:37:11;100556.22;;;6.67;94.11
18500;BME280;9379;52.134;11.576;2022-12-07T09:39:38;100550.84;;;6.69;94.59
18500;BME280;9379;52.134;11.576;2022-12-07T09:42:06;100558.03;;;6.67;94.78
18500;BME280;9379;52.134;11.576;2022-12-07T09:44:34;100556.91;;;6.82;94.60
18500;BME280;9379;52.134;11.576;2022-12-07T09:47:02;100558.31;;;6.75;95.14
18500;BME280;9379;52.134;11.576;2022-12-07T09:49:31;100555.69;;;6.99;93.93
18500;BME280;9379;52.134;11.576;2022-12-07T09:52:04;100548.13;;;6.82;94.94
18500;BME280;9379;52.134;11.576;2022-12-07T09:54:46;100558.41;;;7.21;93.63
18500;BME280;9379;52.134;11.576;2022-12-07T09:57:14;100551.28;;;7.11;94.44
18500;BME280;9379;52.134;11.576;2022-12-07T09:59:41;100531.81;;;7.12;93.23
18500;BME280;9379;52.134;11.576;2022-12-07T10:02:28;100552.03;;;6.89;95.24
18500;BME280;9379;52.134;11.576;2022-12-07T10:05:00;100555.84;;;7.44;93.39
18500;BME280;9379;52.134;11.576;2022-12-07T10:07:27;100558.41;;;7.21;94.25
18500;BME280;9379;52.134;11.576;2022-12-07T10:09:55;100554.31;;;6.93;94.88
18500;BME280;9379;52.134;11.576;2022-12-07T10:12:22;100551.72;;;6.57;95.72
18500;BME280;9379;52.134;11.576;2022-12-07T10:15:01;100542.31;;;6.89;96.05
18500;BME280;9379;52.134;11.576;2022-12-07T10:17:32;100530.47;;;6.95;95.22
18500;BME280;9379;52.134;11.576;2022-12-07T10:20:13;100545.00;;;7.00;94.78
18500;BME280;9379;52.134;11.576;2022-12-07T10:22:54;100551.06;;;6.66;94.81
18500;BME280;9379;52.134;11.576;2022-12-07T10:25:26;100537.91;;;7.01;94.01
18500;BME280;9379;52.134;11.576;2022-12-07T10:28:01;100522.84;;;6.90;93.65
18500;BME280;9379;52.134;11.576;2022-12-07T10:30:29;100533.91;;;7.19;92.98
18500;BME280;9379;52.134;11.576;2022-12-07T10:32:58;100538.22;;;7.20;92.94
18500;BME280;9379;52.134;11.576;2022-12-07T10:35:27;100527.47;;;6.99;93.23
18500;BME280;9379;52.134;11.576;2022-12-07T10:37:55;100538.47;;;7.28;92.83
18500;BME280;9379;52.134;11.576;2022-12-07T10:40:31;100537.59;;;7.63;91.71
18500;BME280;9379;52.134;11.576;2022-12-07T10:43:17;100536.41;;;7.56;91.84
18500;BME280;9379;52.134;11.576;2022-12-07T10:46:08;100531.94;;;7.10;93.53
18500;BME280;9379;52.134;11.576;2022-12-07T10:48:47;100529.69;;;7.28;91.91
18500;BME280;9379;52.134;11.576;2022-12-07T10:51:21;100534.06;;;7.05;92.29
18500;BME280;9379;52.134;11.576;2022-12-07T10:53:58;100530.47;;;6.95;92.61
18500;BME280;9379;52.134;11.576;2022-12-07T10:56:50;100534.50;;;6.88;93.96
18500;BME280;9379;52.134;11.576;2022-12-07T10:59:41;100534.19;;;7.03;93.03
18500;BME280;9379;52.134;11.576;2022-12-07T11:02:22;100533.34;;;7.38;91.90
18500;BME280;9379;52.134;11.576;2022-12-07T11:04:59;100528.75;;;7.18;91.10
18500;BME280;9379;52.134;11.576;2022-12-07T11:07:38;100506.78;;;7.40;92.22
18500;BME280;9379;52.134;11.576;2022-12-07T11:10:15;100527.75;;;7.08;92.04
18500;BME280;9379;52.134;11.576;2022-12-07T11:13:05;100521.75;;;7.17;91.96
18500;BME280;9379;52.134;11.576;2022-12-07T11:15:50;100521.34;;;7.45;91.89
18500;BME280;9379;52.134;11.576;2022-12-07T11:18:25;100524.16;;;7.77;91.69
18500;BME280;9379;52.134;11.576;2022-12-07T11:20:59;100520.44;;;7.69;90.27
18500;BME280;9379;52.134;11.576;2022-12-07T11:23:42;100519.53;;;7.35;90.93
18500;BME280;9379;52.134;11.576;2022-12-07T11:26:19;100520.88;;;7.51;90.93
18500;BME280;9379;52.134;11.576;2022-12-07T11:29:03;100525.34;;;7.73;90.01
18500;BME280;9379;52.134;11.576;2022-12-07T11:31:36;100514.72;;;7.40;90.76
18500;BME280;9379;52.134;11.576;2022-12-07T11:34:18;100517.91;;;7.67;90.74
18500;BME280;9379;52.134;11.576;2022-12-07T11:36:52;100512.91;;;7.40;91.35
18500;BME280;9379;52.134;11.576;2022-12-07T11:39:26;100512.09;;;7.51;89.95
18500;BME280;9379;52.134;11.576;2022-12-07T11:41:59;100512.78;;;7.30;90.53
18500;BME280;9379;52.134;11.576;2022-12-07T11:44:34;100516.31;;;7.07;91.11
18500;BME280;9379;52.134;11.576;2022-12-07T11:47:07;100517.00;;;7.33;92.41
18500;BME280;9379;52.134;11.576;2022-12-07T11:49:42;100514.59;;;6.95;91.11
18500;BME280;9379;52.134;11.576;2022-12-07T11:52:17;100510.59;;;7.24;91.00
18500;BME280;9379;52.134;11.576;2022-12-07T11:54:47;100505.69;;;7.20;91.38
18500;BME280;9379;52.134;11.576;2022-12-07T11:57:20;100506.59;;;7.08;91.24
18500;BME280;9379;52.134;11.576;2022-12-07T11:59:57;100510.63;;;7.36;90.37
18500;BME280;9379;52.134;11.576;2022-12-07T12:02:29;100506.00;;;7.15;90.77
18500;BME280;9379;52.134;11.576;2022-12-07T12:05:02;100508.91;;;6.88;90.50
18500;BME280;9379;52.134;11.576;2022-12-07T12:07:34;100509.56;;;7.03;90.54
18500;BME280;9379;52.134;11.576;2022-12-07T12:10:06;100496.09;;;6.95;91.62
18500;BME280;9379;52.134;11.576;2022-12-07T12:12:53;100507.53;;;7.42;89.80
18500;BME280;9379;52.134;11.576;2022-12-07T12:15:40;100507.88;;;7.37;90.40
18500;BME280;9379;52.134;11.576;2022-12-07T12:18:25;100498.81;;;7.28;89.81
18500;BME280;9379;52.134;11.576;2022-12-07T12:21:02;100507.78;;;7.61;89.09
18500;BME280;9379;52.134;11.576;2022-12-07T12:23:36;100511.75;;;7.44;89.72
18500;BME280;9379;52.134;11.576;2022-12-07T12:26:06;100496.88;;;7.88;89.00
18500;BME280;9379;52.134;11.576;2022-12-07T12:28:38;100504.56;;;8.13;89.09
18500;BME280;9379;52.134;11.576;2022-12-07T12:31:11;100496.97;;;7.75;89.90
18500;BME280;9379;52.134;11.576;2022-12-07T12:33:43;100501.19;;;7.78;88.96
18500;BME280;9379;52.134;11.576;2022-12-07T12:36:21;100486.50;;;7.63;89.97
18500;BME280;9379;52.134;11.576;2022-12-07T12:38:50;100482.81;;;7.87;88.33
18500;BME280;9379;52.134;11.576;2022-12-07T12:47:51;100485.66;;;7.84;88.15
18500;BME280;9379;52.134;11.576;2022-12-07T12:50:21;100487.84;;;7.57;89.02
18500;BME280;9379;52.134;11.576;2022-12-07T12:53:03;100477.38;;;7.78;88.15
18500;BME280;9379;52.134;11.576;2022-12-07T12:58:43;100474.72;;;7.55;89.24
18500;BME280;9379;52.134;11.576;2022-12-07T13:01:36;100485.53;;;7.52;88.93
18500;BME280;9379;52.134;11.576;2022-12-07T13:07:02;100470.53;;;7.42;86.89
18500;BME280;9379;52.134;11.576;2022-12-07T13:09:30;100479.88;;;7.46;86.10
18500;BME280;9379;52.134;11.576;2022-12-07T13:12:01;100482.41;;;7.58;85.92
18500;BME280;9379;52.134;11.576;2022-12-07T13:14:58;100474.56;;;7.35;85.58
18500;BME280;9379;52.134;11.576;2022-12-07T13:17:57;100474.38;;;7.60;86.33
18500;BME280;9379;52.134;11.576;2022-12-07T13:20:47;100471.47;;;7.29;85.38
18500;BME280;9379;52.134;11.576;2022-12-07T13:26:38;100454.03;;;7.38;86.64
18500;BME280;9379;52.134;11.576;2022-12-07T13:29:12;100458.00;;;7.44;86.38
18500;BME280;9379;52.134;11.576;2022-12-07T13:31:41;100464.03;;;7.57;86.62
18500;BME280;9379;52.134;11.576;2022-12-07T13:34:30;100457.13;;;7.21;88.76
18500;BME280;9379;52.134;11.576;2022-12-07T13:36:59;100436.22;;;7.07;90.55
18500;BME280;9379;52.134;11.576;2022-12-07T13:39:27;100451.75;;;7.45;90.54
18500;BME280;9379;52.134;11.576;2022-12-07T13:41:56;100447.28;;;7.23;91.20
18500;BME280;9379;52.134;11.576;2022-12-07T13:44:24;100443.59;;;6.90;92.34
18500;BME280;9379;52.134;11.576;2022-12-07T13:47:02;100453.16;;;7.26;92.48
18500;BME280;9379;52.134;11.576;2022-12-07T13:49:37;100440.34;;;7.33;92.16
18500;BME280;9379;52.134;11.576;2022-12-07T13:52:15;100444.94;;;7.53;91.57
18500;BME280;9379;52.134;11.576;2022-12-07T13:54:47;100425.78;;;7.27;92.94
18500;BME280;9379;52.134;11.576;2022-12-07T14:00:37;100442.47;;;7.17;93.32
18500;BME280;9379;52.134;11.576;2022-12-07T14:03:23;100445.03;;;7.29;92.51
18500;BME280;9379;52.134;11.576;2022-12-07T14:06:10;100437.16;;;7.06;92.39
18500;BME280;9379;52.134;11.576;2022-12-07T14:08:41;100446.72;;;7.53;90.95
18500;BME280;9379;52.134;11.576;2022-12-07T14:11:13;100451.38;;;7.38;91.02
18500;BME280;9379;52.134;11.576;2022-12-07T14:13:50;100443.44;;;7.38;90.66
18500;BME280;9379;52.134;11.576;2022-12-07T14:16:25;100451.81;;;6.98;92.16